createdAt,value
2024-05-09T00:00:57.254Z,99546.78
2024-05-09T00:02:59.983Z,99539.88
2024-05-09T00:05:01.720Z,99550.09
2024-05-09T00:07:03.524Z,99550.09
2024-05-09T00:09:05.084Z,99545.09
2024-05-09T00:11:06.871Z,99549.00
2024-05-09T00:13:10.199Z,99549.25
2024-05-09T00:15:12.396Z,99552.28
2024-05-09T00:17:14.205Z,99550.06
2024-05-09T00:19:15.940Z,99555.59
2024-05-09T00:21:17.734Z,99550.34
2024-05-09T00:23:19.395Z,99544.25
2024-05-09T00:25:21.030Z,99550.06
2024-05-09T00:27:22.759Z,99545.09
2024-05-09T00:29:24.498Z,99543.44
2024-05-09T00:31:26.725Z,99544.53
2024-05-09T00:33:28.722Z,99544.00
2024-05-09T00:35:30.699Z,99538.47
2024-05-09T00:37:32.475Z,99543.44
2024-05-09T00:39:34.106Z,99539.84
2024-05-09T00:41:35.798Z,99541.22
2024-05-09T00:43:37.430Z,99534.88
2024-05-09T00:45:39.060Z,99537.91
2024-05-09T00:47:42.945Z,99532.94
2024-05-09T00:49:44.819Z,99536.78
2024-05-09T00:51:46.677Z,99530.72
2024-05-09T00:53:49.177Z,99540.09
2024-05-09T00:55:52.676Z,99529.06
2024-05-09T00:57:54.726Z,99538.69
2024-05-09T00:59:56.778Z,99537.91
2024-05-09T01:01:59.644Z,99536.19
2024-05-09T01:04:01.748Z,99534.53
2024-05-09T01:06:03.517Z,99530.97
2024-05-09T01:08:05.947Z,99534.81
2024-05-09T01:10:13.959Z,99539.78
2024-05-09T01:12:19.206Z,99540.03
2024-05-09T01:14:25.368Z,99532.31
2024-05-09T01:16:27.076Z,99531.50
2024-05-09T01:18:28.875Z,99534.78
2024-05-09T01:20:39.801Z,99542.50
2024-05-09T01:22:44.734Z,99537.25
2024-05-09T01:24:46.357Z,99549.38
2024-05-09T01:26:48.307Z,99538.63
2024-05-09T01:28:49.899Z,99543.31
2024-05-09T01:30:51.499Z,99550.75
2024-05-09T01:32:53.414Z,99549.63
2024-05-09T01:34:59.663Z,99543.88
2024-05-09T01:37:01.347Z,99546.63
2024-05-09T01:39:02.931Z,99547.97
2024-05-09T01:41:04.807Z,99546.59
2024-05-09T01:43:07.630Z,99554.88
2024-05-09T01:45:09.805Z,99551.56
2024-05-09T01:47:11.507Z,99551.81
2024-05-09T01:49:13.310Z,99544.91
2024-05-09T01:51:15.021Z,99542.44
2024-05-09T01:53:16.712Z,99548.19
2024-05-09T01:55:18.317Z,99544.88
2024-05-09T01:57:19.994Z,99544.34
2024-05-09T01:59:21.713Z,99543.78
2024-05-09T02:01:24.021Z,99534.41
2024-05-09T02:03:27.948Z,99539.91
2024-05-09T02:05:30.094Z,99540.47
2024-05-09T02:07:31.711Z,99543.47
2024-05-09T02:09:37.680Z,99545.41
2024-05-09T02:11:47.727Z,99535.75
2024-05-09T02:13:49.415Z,99547.06
2024-05-09T02:15:52.563Z,99544.56
2024-05-09T02:17:54.504Z,99544.00
2024-05-09T02:19:56.255Z,99547.03
2024-05-09T02:21:57.823Z,99549.22
2024-05-09T02:24:00.113Z,99543.97
2024-05-09T02:26:01.737Z,99539.81
2024-05-09T02:28:03.413Z,99540.66
2024-05-09T02:30:12.227Z,99547.28
2024-05-09T02:32:20.160Z,99541.47
2024-05-09T02:34:21.938Z,99539.78
2024-05-09T02:36:23.568Z,99540.91
2024-05-09T02:38:25.193Z,99542.00
2024-05-09T02:40:35.563Z,99539.78
2024-05-09T02:42:39.703Z,99540.88
2024-05-09T02:44:41.265Z,99540.34
2024-05-09T02:46:42.827Z,99535.91
2024-05-09T02:48:44.459Z,99538.66
2024-05-09T02:50:46.203Z,99527.91
2024-05-09T02:52:47.896Z,99539.19
2024-05-09T02:54:49.500Z,99537.53
2024-05-09T02:56:51.246Z,99525.94
2024-05-09T02:58:52.964Z,99531.72
2024-05-09T03:00:54.726Z,99526.22
2024-05-09T03:02:56.538Z,99535.56
2024-05-09T03:04:58.915Z,99528.44
2024-05-09T03:07:00.539Z,99533.94
2024-05-09T03:09:04.796Z,99527.28
2024-05-09T03:11:06.639Z,99534.47
2024-05-09T03:13:14.119Z,99537.47
2024-05-09T03:15:18.375Z,99534.16
2024-05-09T03:17:20.143Z,99539.66
2024-05-09T03:19:22.078Z,99536.91
2024-05-09T03:21:23.733Z,99541.84
2024-05-09T03:23:25.361Z,99538.25
2024-05-09T03:25:26.988Z,99535.78
2024-05-09T03:27:28.641Z,99536.88
2024-05-09T03:29:30.484Z,99534.13
2024-05-09T03:31:32.173Z,99536.03
2024-05-09T03:33:34.088Z,99531.91
2024-05-09T03:35:35.875Z,99535.47
2024-05-09T03:37:37.491Z,99537.41
2024-05-09T03:39:39.193Z,99541.22
2024-05-09T03:41:40.850Z,99537.91
2024-05-09T03:43:43.926Z,99544.22
2024-05-09T03:45:48.106Z,99541.75
2024-05-09T03:47:49.859Z,99536.25
2024-05-09T03:49:51.556Z,99532.66
2024-05-09T03:51:53.138Z,99535.69
2024-05-09T03:53:55.108Z,99541.44
2024-05-09T03:55:57.315Z,99540.63
2024-05-09T03:57:59.265Z,99538.13
2024-05-09T04:00:00.930Z,99540.06
2024-05-09T04:02:06.522Z,99542.81
2024-05-09T04:04:09.160Z,99545.56
2024-05-09T04:06:12.045Z,99534.56
2024-05-09T04:08:15.369Z,99537.31
2024-05-09T04:10:24.242Z,99537.31
2024-05-09T04:12:32.650Z,99539.25
2024-05-09T04:14:34.388Z,99539.50
2024-05-09T04:16:36.058Z,99542.25
2024-05-09T04:18:38.088Z,99549.94
2024-05-09T04:20:41.142Z,99544.44
2024-05-09T04:22:43.218Z,99554.88
2024-05-09T04:24:45.272Z,99551.31
2024-05-09T04:26:46.853Z,99553.50
2024-05-09T04:28:48.483Z,99548.22
2024-05-09T04:30:50.641Z,99551.25
2024-05-09T04:32:52.440Z,99556.75
2024-05-09T04:34:54.065Z,99554.28
2024-05-09T04:36:55.658Z,99558.13
2024-05-09T04:38:57.241Z,99560.88
2024-05-09T04:40:59.845Z,99561.97
2024-05-09T04:43:01.595Z,99564.72
2024-05-09T04:45:03.359Z,99566.91
2024-05-09T04:47:05.081Z,99567.19
2024-05-09T04:49:06.791Z,99571.00
2024-05-09T04:51:08.500Z,99571.28
2024-05-09T04:53:14.855Z,99572.13
2024-05-09T04:55:16.885Z,99572.34
2024-05-09T04:57:18.437Z,99569.59
2024-05-09T04:59:20.104Z,99576.22
2024-05-09T05:01:21.798Z,99574.56
2024-05-09T05:03:23.543Z,99580.06
2024-05-09T05:05:25.234Z,99571.81
2024-05-09T05:07:26.820Z,99580.88
2024-05-09T05:09:28.501Z,99579.50
2024-05-09T05:11:30.172Z,99573.44
2024-05-09T05:13:32.526Z,99577.81
2024-05-09T05:15:34.107Z,99569.84
2024-05-09T05:17:36.438Z,99576.19
2024-05-09T05:19:38.470Z,99577.56
2024-05-09T05:21:40.164Z,99569.06
2024-05-09T05:23:41.910Z,99578.69
2024-05-09T05:25:44.082Z,99580.09
2024-05-09T05:27:45.714Z,99583.41
2024-05-09T05:29:50.128Z,99585.63
2024-05-09T05:31:51.791Z,99584.00
2024-05-09T05:33:53.599Z,99585.69
2024-05-09T05:35:55.954Z,99583.50
2024-05-09T05:37:57.571Z,99584.88
2024-05-09T05:39:59.290Z,99588.47
2024-05-09T05:42:02.426Z,99587.41
2024-05-09T05:44:04.117Z,99585.44
2024-05-09T05:46:05.735Z,99579.69
2024-05-09T05:48:08.051Z,99583.00
2024-05-09T05:50:20.409Z,99586.06
2024-05-09T05:52:28.470Z,99588.56
2024-05-09T05:54:30.039Z,99589.94
2024-05-09T05:56:31.705Z,99597.72
2024-05-09T05:58:33.343Z,99594.69
2024-05-09T06:00:38.551Z,99599.09
2024-05-09T06:02:42.028Z,99596.06
2024-05-09T06:04:43.815Z,99607.91
2024-05-09T06:06:45.500Z,99606.56
2024-05-09T06:08:47.143Z,99604.66
2024-05-09T06:10:48.889Z,99607.41
2024-05-09T06:12:50.535Z,99602.47
2024-05-09T06:14:52.210Z,99601.38
2024-05-09T06:16:57.703Z,99603.84
2024-05-09T06:18:59.905Z,99599.72
2024-05-09T06:21:01.676Z,99601.41
2024-05-09T06:23:03.594Z,99596.47
2024-05-09T06:25:05.633Z,99599.75
2024-05-09T06:27:07.334Z,99592.06
2024-05-09T06:29:12.439Z,99597.03
2024-05-09T06:31:14.076Z,99590.72
2024-05-09T06:33:16.726Z,99596.56
2024-05-09T06:35:20.422Z,99594.91
2024-05-09T06:37:22.026Z,99586.69
2024-05-09T06:39:24.146Z,99591.97
2024-05-09T06:41:25.768Z,99588.13
2024-05-09T06:43:27.429Z,99593.97
2024-05-09T06:45:28.998Z,99586.81
2024-05-09T06:47:30.837Z,99583.84
2024-05-09T06:49:32.916Z,99585.81
2024-05-09T06:51:38.394Z,99586.72
2024-05-09T06:53:40.724Z,99586.19
2024-05-09T06:55:43.105Z,99587.59
2024-05-09T06:57:44.697Z,99587.03
2024-05-09T06:59:46.300Z,99588.47
2024-05-09T07:01:48.173Z,99576.59
2024-05-09T07:03:50.163Z,99584.88
2024-05-09T07:05:51.892Z,99584.59
2024-05-09T07:07:53.600Z,99587.38
2024-05-09T07:09:55.293Z,99586.53
2024-05-09T07:11:57.046Z,99588.75
2024-05-09T07:13:58.714Z,99587.09
2024-05-09T07:16:00.373Z,99585.41
2024-05-09T07:18:17.768Z,99584.81
2024-05-09T07:20:31.632Z,99590.88
2024-05-09T07:22:36.316Z,99582.56
2024-05-09T07:24:44.890Z,99582.81
2024-05-09T07:27:06.966Z,99583.88
2024-05-09T07:29:28.984Z,99581.94
2024-05-09T07:31:37.413Z,99579.41
2024-05-09T07:33:39.294Z,99576.84
2024-05-09T07:35:40.936Z,99564.09
2024-05-09T07:37:42.546Z,99561.28
2024-05-09T07:39:44.264Z,99563.97
2024-05-09T07:41:46.038Z,99568.88
2024-05-09T07:43:48.816Z,99561.88
2024-05-09T07:45:54.102Z,99561.78
2024-05-09T07:49:44.327Z,99558.69
2024-05-09T07:53:30.555Z,99559.88
2024-05-09T07:54:45.514Z,99558.63
2024-05-09T07:56:47.314Z,99564.63
2024-05-09T07:59:01.882Z,99560.09
2024-05-09T08:01:23.951Z,99555.25
2024-05-09T08:03:32.328Z,99555.16
2024-05-09T08:05:38.956Z,99558.16
2024-05-09T08:07:40.696Z,99550.22
2024-05-09T08:09:42.304Z,99548.44
2024-05-09T08:11:44.887Z,99551.91
2024-05-09T08:13:46.782Z,99547.56
2024-05-09T08:15:48.394Z,99549.38
2024-05-09T08:17:50.173Z,99542.56
2024-05-09T08:19:51.945Z,99538.50
2024-05-09T08:21:53.651Z,99544.75
2024-05-09T08:23:55.717Z,99539.84
2024-05-09T08:26:00.806Z,99540.53
2024-05-09T08:28:04.772Z,99540.88
2024-05-09T08:30:10.184Z,99535.63
2024-05-09T08:32:14.336Z,99539.06
2024-05-09T08:34:18.527Z,99546.44
2024-05-09T08:36:20.197Z,99541.22
2024-05-09T08:38:21.845Z,99541.53
2024-05-09T08:40:30.761Z,99539.38
2024-05-09T08:42:38.212Z,99535.25
2024-05-09T08:44:39.958Z,99527.84
2024-05-09T08:46:42.375Z,99531.25
2024-05-09T08:48:46.579Z,99526.28
2024-05-09T08:50:52.077Z,99535.56
2024-05-09T08:52:53.743Z,99528.63
2024-05-09T08:54:55.377Z,99526.75
2024-05-09T08:56:57.450Z,99527.03
2024-05-09T08:59:01.695Z,99520.09
2024-05-09T09:01:07.407Z,99527.38
2024-05-09T09:03:11.390Z,99514.56
2024-05-09T09:05:17.138Z,99524.28
2024-05-09T09:07:22.407Z,99517.31
2024-05-09T09:09:26.722Z,99515.41
2024-05-09T09:11:28.467Z,99522.38
2024-05-09T09:13:30.123Z,99516.50
2024-05-09T09:15:31.864Z,99514.91
2024-05-09T09:17:33.745Z,99513.34
2024-05-09T09:19:40.232Z,99510.59
2024-05-09T09:21:42.589Z,99511.28
2024-05-09T09:23:44.250Z,99514.06
2024-05-09T09:25:48.965Z,99508.50
2024-05-09T09:27:50.865Z,99514.72
2024-05-09T09:29:52.547Z,99516.19
2024-05-09T09:32:08.562Z,99515.00
2024-05-09T09:34:10.673Z,99515.63
2024-05-09T09:36:14.351Z,99506.13
2024-05-09T09:38:21.575Z,99510.25
2024-05-09T09:40:32.094Z,99506.63
2024-05-09T09:42:37.816Z,99511.78
2024-05-09T09:44:42.212Z,99504.88
2024-05-09T09:46:47.397Z,99506.38
2024-05-09T09:48:49.289Z,99511.19
2024-05-09T09:50:52.281Z,99505.94
2024-05-09T09:52:55.057Z,99502.34
2024-05-09T09:54:58.556Z,99500.72
2024-05-09T09:57:01.020Z,99505.19
2024-05-09T09:59:04.306Z,99502.09
2024-05-09T10:01:05.961Z,99502.59
2024-05-09T10:03:07.583Z,99508.69
2024-05-09T10:05:09.935Z,99497.19
2024-05-09T10:07:13.372Z,99502.44
2024-05-09T10:09:16.530Z,99498.84
2024-05-09T10:11:22.183Z,99494.41
2024-05-09T10:13:33.030Z,99491.59
2024-05-09T10:15:51.424Z,99500.78
2024-05-09T10:17:53.357Z,99488.44
2024-05-09T10:20:14.412Z,99485.59
2024-05-09T10:22:28.852Z,99484.63
2024-05-09T10:24:53.469Z,99483.75
2024-05-09T10:26:56.011Z,99486.19
2024-05-09T10:28:58.753Z,99484.53
2024-05-09T10:31:03.051Z,99489.75
2024-05-09T10:33:10.937Z,99481.66
2024-05-09T10:35:15.082Z,99476.84
2024-05-09T10:37:17.545Z,99481.56
2024-05-09T10:39:25.739Z,99476.72
2024-05-09T10:41:27.646Z,99471.91
2024-05-09T10:43:31.281Z,99477.47
2024-05-09T10:45:35.473Z,99468.19
2024-05-09T10:47:37.445Z,99464.88
2024-05-09T10:49:39.283Z,99464.31
2024-05-09T10:51:44.496Z,99452.53
2024-05-09T10:53:48.849Z,99456.44
2024-05-09T10:55:57.499Z,99452.06
2024-05-09T10:57:59.133Z,99455.47
2024-05-09T11:00:00.756Z,99458.09
2024-05-09T11:02:10.178Z,99455.06
2024-05-09T11:04:12.235Z,99452.06
2024-05-09T11:06:15.384Z,99450.66
2024-05-09T11:08:17.656Z,99439.72
2024-05-09T11:10:27.331Z,99439.50
2024-05-09T11:12:33.505Z,99430.19
2024-05-09T11:14:35.368Z,99440.34
2024-05-09T11:16:36.954Z,99433.31
2024-05-09T11:18:39.407Z,99429.84
2024-05-09T11:20:41.419Z,99432.88
2024-05-09T11:22:45.207Z,99423.69
2024-05-09T11:24:47.028Z,99417.72
2024-05-09T11:26:48.761Z,99423.34
2024-05-09T11:28:51.803Z,99421.34
2024-05-09T11:31:05.447Z,99423.34
2024-05-09T11:33:11.232Z,99419.50
2024-05-09T11:35:12.982Z,99413.28
2024-05-09T11:37:14.763Z,99410.59
2024-05-09T11:39:16.613Z,99411.50
2024-05-09T11:41:18.723Z,99407.09
2024-05-09T11:43:21.048Z,99411.16
2024-05-09T11:45:22.940Z,99405.41
2024-05-09T11:47:24.774Z,99408.69
2024-05-09T11:49:27.083Z,99411.25
2024-05-09T11:51:28.896Z,99406.94
2024-05-09T11:53:30.521Z,99397.75
2024-05-09T11:55:36.262Z,99399.88
2024-05-09T11:57:38.973Z,99395.19
2024-05-09T11:59:41.020Z,99390.09
2024-05-09T12:01:42.776Z,99393.16
2024-05-09T12:03:44.647Z,99384.47
2024-05-09T12:05:46.522Z,99390.19
2024-05-09T12:07:48.234Z,99389.50
2024-05-09T12:09:50.051Z,99385.97
2024-05-09T12:11:52.877Z,99384.06
2024-05-09T12:13:54.555Z,99387.00
2024-05-09T12:15:56.280Z,99382.63
2024-05-09T12:18:00.059Z,99379.81
2024-05-09T12:20:07.060Z,99385.91
2024-05-09T12:22:10.796Z,99375.94
2024-05-09T12:24:14.483Z,99377.13
2024-05-09T12:26:17.714Z,99376.66
2024-05-09T12:28:20.162Z,99380.28
2024-05-09T12:30:32.553Z,99369.47
2024-05-09T12:32:39.165Z,99366.66
2024-05-09T12:34:40.859Z,99379.94
2024-05-09T12:36:43.109Z,99370.31
2024-05-09T12:38:45.907Z,99369.47
2024-05-09T12:40:47.557Z,99374.66
2024-05-09T12:42:49.905Z,99371.84
2024-05-09T12:44:51.509Z,99364.22
2024-05-09T12:46:53.083Z,99358.59
2024-05-09T12:48:55.065Z,99374.66
2024-05-09T12:50:57.646Z,99362.59
2024-05-09T12:52:59.358Z,99363.78
2024-05-09T12:55:01.038Z,99358.16
2024-05-09T12:57:02.712Z,99357.78
2024-05-09T12:59:04.378Z,99351.00
2024-05-09T13:01:06.113Z,99341.34
2024-05-09T13:03:07.886Z,99336.09
2024-05-09T13:05:10.502Z,99334.00
2024-05-09T13:07:12.230Z,99338.34
2024-05-09T13:09:13.861Z,99332.72
2024-05-09T13:11:15.486Z,99340.72
2024-05-09T13:13:17.293Z,99342.25
2024-05-09T13:15:19.040Z,99339.00
2024-05-09T13:17:20.918Z,99345.31
2024-05-09T13:19:22.737Z,99331.63
2024-05-09T13:21:24.413Z,99321.94
2024-05-09T13:23:26.415Z,99326.69
2024-05-09T13:25:28.041Z,99331.50
2024-05-09T13:27:29.702Z,99323.44
2024-05-09T13:29:31.344Z,99320.97
2024-05-09T13:31:32.976Z,99320.16
2024-05-09T13:33:34.694Z,99318.88
2024-05-09T13:35:36.506Z,99314.44
2024-05-09T13:37:38.334Z,99318.06
2024-05-09T13:39:40.003Z,99318.41
2024-05-09T13:41:41.594Z,99317.59
2024-05-09T13:43:43.181Z,99315.16
2024-05-09T13:45:44.944Z,99312.78
2024-05-09T13:47:46.738Z,99311.63
2024-05-09T13:49:48.480Z,99319.63
2024-05-09T13:51:50.140Z,99303.09
2024-05-09T13:53:51.752Z,99302.97
2024-05-09T13:55:53.426Z,99305.34
2024-05-09T13:57:55.420Z,99297.97
2024-05-09T13:59:57.380Z,99305.97
2024-05-09T14:01:59.066Z,99304.69
2024-05-09T14:04:00.893Z,99293.78
2024-05-09T14:06:02.622Z,99286.53
2024-05-09T14:08:04.608Z,99287.63
2024-05-09T14:10:11.399Z,99290.31
2024-05-09T14:12:15.324Z,99281.31
2024-05-09T14:14:16.968Z,99278.78
2024-05-09T14:16:18.805Z,99276.22
2024-05-09T14:18:20.808Z,99275.31
2024-05-09T14:20:30.712Z,99268.38
2024-05-09T14:22:35.488Z,99264.63
2024-05-09T14:24:37.128Z,99265.38
2024-05-09T14:26:38.726Z,99264.88
2024-05-09T14:28:40.336Z,99249.94
2024-05-09T14:30:42.480Z,99254.63
2024-05-09T14:32:44.622Z,99258.16
2024-05-09T14:34:46.477Z,99256.41
2024-05-09T14:36:48.296Z,99259.81
2024-05-09T14:38:49.910Z,99245.19
2024-05-09T14:40:51.635Z,99243.47
2024-05-09T14:42:53.500Z,99238.56
2024-05-09T14:44:55.098Z,99238.00
2024-05-09T14:46:56.913Z,99235.78
2024-05-09T14:49:00.104Z,99242.78
2024-05-09T14:51:01.723Z,99238.69
2024-05-09T14:53:03.489Z,99236.13
2024-05-09T14:55:05.590Z,99239.97
2024-05-09T14:57:07.325Z,99231.00
2024-05-09T14:59:09.222Z,99220.34
2024-05-09T15:01:10.894Z,99223.03
2024-05-09T15:03:12.760Z,99221.66
2024-05-09T15:05:14.519Z,99231.81
2024-05-09T15:07:16.277Z,99230.78
2024-05-09T15:09:17.958Z,99223.50
2024-05-09T15:11:19.624Z,99229.03
2024-05-09T15:13:21.699Z,99221.28
2024-05-09T15:15:23.369Z,99221.84
2024-05-09T15:17:25.038Z,99215.66
2024-05-09T15:19:26.956Z,99210.28
2024-05-09T15:21:28.725Z,99218.56
2024-05-09T15:23:30.286Z,99214.47
2024-05-09T15:25:33.632Z,99205.47
2024-05-09T15:27:35.372Z,99202.06
2024-05-09T15:29:37.035Z,99207.56
2024-05-09T15:31:38.694Z,99211.41
2024-05-09T15:33:41.747Z,99208.84
2024-05-09T15:35:44.825Z,99207.91
2024-05-09T15:37:48.183Z,99210.91
2024-05-09T15:39:50.020Z,99205.44
2024-05-09T15:41:56.490Z,99208.28
2024-05-09T15:43:58.077Z,99203.25
2024-05-09T15:45:59.851Z,99201.00
2024-05-09T15:48:02.826Z,99198.09
2024-05-09T15:50:07.887Z,99199.59
2024-05-09T15:52:11.568Z,99194.34
2024-05-09T15:54:13.296Z,99199.00
2024-05-09T15:56:14.888Z,99192.47
2024-05-09T15:58:16.717Z,99194.78
2024-05-09T16:00:25.252Z,99195.44
2024-05-09T16:02:36.105Z,99190.06
2024-05-09T16:04:37.952Z,99189.28
2024-05-09T16:06:39.798Z,99187.16
2024-05-09T16:08:41.594Z,99189.34
2024-05-09T16:10:45.999Z,99193.78
2024-05-09T16:12:50.906Z,99192.13
2024-05-09T16:14:52.552Z,99189.56
2024-05-09T16:16:54.234Z,99186.50
2024-05-09T16:18:56.002Z,99186.31
2024-05-09T16:21:00.290Z,99179.09
2024-05-09T16:23:02.113Z,99184.53
2024-05-09T16:25:04.135Z,99186.66
2024-05-09T16:27:06.045Z,99186.19
2024-05-09T16:29:08.497Z,99187.91
2024-05-09T16:31:10.232Z,99180.66
2024-05-09T16:33:23.872Z,99182.44
2024-05-09T16:35:28.757Z,99189.78
2024-05-09T16:37:33.393Z,99174.66
2024-05-09T16:39:35.021Z,99173.66
2024-05-09T16:41:37.016Z,99183.59
2024-05-09T16:43:38.587Z,99176.16
2024-05-09T16:45:41.903Z,99173.78
2024-05-09T16:47:43.736Z,99181.59
2024-05-09T16:49:45.470Z,99175.28
2024-05-09T16:51:47.087Z,99177.44
2024-05-09T16:53:48.771Z,99164.84
2024-05-09T16:55:50.400Z,99174.94
2024-05-09T16:57:52.088Z,99175.94
2024-05-09T16:59:53.673Z,99176.13
2024-05-09T17:01:55.341Z,99172.75
2024-05-09T17:03:59.848Z,99174.44
2024-05-09T17:06:03.644Z,99169.81
2024-05-09T17:08:05.726Z,99173.25
2024-05-09T17:10:10.440Z,99170.03
2024-05-09T17:12:17.119Z,99173.88
2024-05-09T17:14:18.816Z,99180.69
2024-05-09T17:16:20.975Z,99175.28
2024-05-09T17:18:22.748Z,99179.88
2024-05-09T17:20:31.834Z,99186.00
2024-05-09T17:22:36.619Z,99169.09
2024-05-09T17:24:38.192Z,99173.06
2024-05-09T17:26:39.954Z,99173.25
2024-05-09T17:28:41.575Z,99169.47
2024-05-09T17:30:43.343Z,99168.69
2024-05-09T17:32:45.112Z,99162.94
2024-05-09T17:34:46.798Z,99169.00
2024-05-09T17:36:48.443Z,99171.97
2024-05-09T17:38:50.327Z,99168.91
2024-05-09T17:40:53.131Z,99172.53
2024-05-09T17:42:54.908Z,99169.94
2024-05-09T17:44:56.506Z,99168.47
2024-05-09T17:46:58.154Z,99161.91
2024-05-09T17:49:01.321Z,99175.19
2024-05-09T17:51:03.318Z,99180.31
2024-05-09T17:53:05.847Z,99179.00
2024-05-09T17:55:07.607Z,99170.81
2024-05-09T17:57:09.464Z,99178.22
2024-05-09T17:59:11.578Z,99177.56
2024-05-09T18:01:13.972Z,99177.75
2024-05-09T18:03:15.728Z,99180.72
2024-05-09T18:05:17.495Z,99171.69
2024-05-09T18:07:19.723Z,99181.88
2024-05-09T18:09:23.004Z,99170.91
2024-05-09T18:11:25.633Z,99173.84
2024-05-09T18:13:27.481Z,99174.81
2024-05-09T18:15:29.056Z,99180.56
2024-05-09T18:17:30.935Z,99176.81
2024-05-09T18:19:35.300Z,99181.69
2024-05-09T18:21:39.140Z,99177.13
2024-05-09T18:23:40.718Z,99184.16
2024-05-09T18:25:42.403Z,99179.88
2024-05-09T18:27:44.047Z,99178.91
2024-05-09T18:29:45.625Z,99183.00
2024-05-09T18:31:47.298Z,99184.81
2024-05-09T18:33:49.171Z,99180.53
2024-05-09T18:35:50.965Z,99174.81
2024-05-09T18:37:53.083Z,99178.56
2024-05-09T18:39:54.817Z,99181.00
2024-05-09T18:41:56.403Z,99177.25
2024-05-09T18:43:58.359Z,99184.09
2024-05-09T18:46:00.015Z,99179.84
2024-05-09T18:48:01.795Z,99186.66
2024-05-09T18:50:04.706Z,99183.22
2024-05-09T18:52:07.571Z,99184.53
2024-05-09T18:54:09.249Z,99191.38
2024-05-09T18:56:10.831Z,99195.13
2024-05-09T18:58:12.612Z,99199.53
2024-05-09T19:00:26.645Z,99197.72
2024-05-09T19:02:35.374Z,99202.41
2024-05-09T19:04:37.192Z,99201.72
2024-05-09T19:06:39.031Z,99204.13
2024-05-09T19:08:40.639Z,99207.88
2024-05-09T19:10:42.300Z,99209.97
2024-05-09T19:12:44.009Z,99211.25
2024-05-09T19:14:45.619Z,99214.44
2024-05-09T19:16:47.315Z,99212.13
2024-05-09T19:18:51.363Z,99213.88
2024-05-09T19:20:53.234Z,99215.19
2024-05-09T19:22:54.919Z,99224.78
2024-05-09T19:24:56.656Z,99215.72
2024-05-09T19:26:58.294Z,99222.88
2024-05-09T19:28:59.866Z,99226.94
2024-05-09T19:31:01.700Z,99228.16
2024-05-09T19:33:03.551Z,99227.47
2024-05-09T19:35:05.744Z,99232.66
2024-05-09T19:37:07.499Z,99231.06
2024-05-09T19:39:09.356Z,99234.28
2024-05-09T19:41:11.033Z,99239.47
2024-05-09T19:43:12.682Z,99231.53
2024-05-09T19:45:14.290Z,99231.97
2024-05-09T19:47:15.988Z,99233.19
2024-05-09T19:49:17.728Z,99238.06
2024-05-09T19:51:19.422Z,99238.19
2024-05-09T19:53:21.040Z,99233.53
2024-05-09T19:55:22.887Z,99245.88
2024-05-09T19:57:24.625Z,99243.50
2024-05-09T19:59:26.224Z,99241.16
2024-05-09T20:01:27.836Z,99242.09
2024-05-09T20:03:36.510Z,99245.72
2024-05-09T20:05:38.850Z,99252.53
2024-05-09T20:07:41.936Z,99244.59
2024-05-09T20:09:43.539Z,99253.84
2024-05-09T20:11:45.155Z,99250.34
2024-05-09T20:13:46.820Z,99249.91
2024-05-09T20:15:49.359Z,99254.72
2024-05-09T20:17:51.577Z,99248.47
2024-05-09T20:19:54.477Z,99253.28
2024-05-09T20:21:56.203Z,99247.00
2024-05-09T20:23:57.923Z,99254.56
2024-05-09T20:25:59.566Z,99254.97
2024-05-09T20:28:01.401Z,99258.66
2024-05-09T20:30:06.514Z,99256.78
2024-05-09T20:32:09.591Z,99243.59
2024-05-09T20:34:11.291Z,99253.63
2024-05-09T20:36:12.869Z,99258.72
2024-05-09T20:38:14.678Z,99256.34
2024-05-09T20:40:25.278Z,99255.88
2024-05-09T20:42:32.872Z,99253.50
2024-05-09T20:44:34.623Z,99249.16
2024-05-09T20:46:36.165Z,99252.81
2024-05-09T20:48:37.861Z,99257.91
2024-05-09T20:50:41.982Z,99257.69
2024-05-09T20:52:44.392Z,99258.06
2024-05-09T20:54:46.100Z,99260.06
2024-05-09T20:56:47.718Z,99258.47
2024-05-09T20:58:49.419Z,99260.50
2024-05-09T21:00:51.239Z,99249.47
2024-05-09T21:02:53.111Z,99253.09
2024-05-09T21:04:54.800Z,99254.84
2024-05-09T21:06:56.534Z,99252.44
2024-05-09T21:08:58.713Z,99259.97
2024-05-09T21:11:00.361Z,99265.56
2024-05-09T21:13:03.333Z,99263.97
2024-05-09T21:15:05.956Z,99260.16
2024-05-09T21:17:07.677Z,99268.50
2024-05-09T21:19:09.423Z,99266.06
2024-05-09T21:21:11.284Z,99259.78
2024-05-09T21:23:12.926Z,99258.72
2024-05-09T21:25:14.622Z,99263.47
2024-05-09T21:27:16.248Z,99263.50
2024-05-09T21:29:17.859Z,99263.03
2024-05-09T21:31:19.577Z,99263.91
2024-05-09T21:33:21.669Z,99265.03
2024-05-09T21:35:23.412Z,99257.63
2024-05-09T21:37:25.041Z,99261.28
2024-05-09T21:39:26.695Z,99260.19
2024-05-09T21:41:28.303Z,99258.28
2024-05-09T21:43:31.478Z,99256.69
2024-05-09T21:45:34.073Z,99263.91
2024-05-09T21:47:36.123Z,99265.88
2024-05-09T21:49:37.870Z,99261.22
2024-05-09T21:51:39.554Z,99261.00
2024-05-09T21:53:41.215Z,99261.03
2024-05-09T21:55:43.101Z,99258.31
2024-05-09T21:57:44.886Z,99263.56
2024-05-09T21:59:47.444Z,99260.84
2024-05-09T22:01:49.146Z,99258.13
2024-05-09T22:03:51.045Z,99254.28
2024-05-09T22:05:52.708Z,99257.09
2024-05-09T22:07:54.310Z,99261.50
2024-05-09T22:09:55.915Z,99260.44
2024-05-09T22:11:58.047Z,99265.13
2024-05-09T22:13:59.724Z,99260.19
2024-05-09T22:16:03.782Z,99259.38
2024-05-09T22:18:06.237Z,99267.41
2024-05-09T22:20:17.863Z,99267.97
2024-05-09T22:22:23.611Z,99275.44
2024-05-09T22:24:28.020Z,99268.56
2024-05-09T22:26:29.619Z,99270.25
2024-05-09T22:28:31.723Z,99273.88
2024-05-09T22:30:37.479Z,99273.28
2024-05-09T22:32:41.330Z,99277.19
2024-05-09T22:34:43.016Z,99277.75
2024-05-09T22:36:44.652Z,99280.25
2024-05-09T22:38:46.286Z,99289.09
2024-05-09T22:40:49.803Z,99295.19
2024-05-09T22:42:51.848Z,99292.97
2024-05-09T22:44:53.472Z,99289.13
2024-05-09T22:46:55.136Z,99284.19
2024-05-09T22:48:56.940Z,99282.81
2024-05-09T22:50:58.565Z,99294.41
2024-05-09T22:53:00.216Z,99293.28
2024-05-09T22:55:01.820Z,99286.41
2024-05-09T22:57:03.749Z,99291.66
2024-05-09T22:59:06.638Z,99296.91
2024-05-09T23:01:14.741Z,99286.41
2024-05-09T23:03:16.643Z,99286.16
2024-05-09T23:05:18.444Z,99283.97
2024-05-09T23:07:20.106Z,99285.31
2024-05-09T23:09:21.808Z,99283.09
2024-05-09T23:11:23.567Z,99282.56
2024-05-09T23:13:25.572Z,99284.25
2024-05-09T23:15:27.426Z,99279.28
2024-05-09T23:17:29.076Z,99273.47
2024-05-09T23:19:30.765Z,99278.75
2024-05-09T23:21:32.411Z,99276.53
2024-05-09T23:23:34.207Z,99276.25
2024-05-09T23:25:36.742Z,99278.16
2024-05-09T23:27:39.128Z,99277.91
2024-05-09T23:29:40.728Z,99280.13
2024-05-09T23:31:42.382Z,99277.91
2024-05-09T23:33:47.197Z,99276.53
2024-05-09T23:35:48.946Z,99277.91
2024-05-09T23:37:50.545Z,99269.38
2024-05-09T23:39:52.528Z,99277.38
2024-05-09T23:41:54.081Z,99274.03
2024-05-09T23:43:55.657Z,99276.53
2024-05-09T23:45:57.310Z,99272.94
2024-05-09T23:47:58.969Z,99275.41
2024-05-09T23:50:00.773Z,99275.16
2024-05-09T23:52:02.420Z,99269.91
2024-05-09T23:54:04.118Z,99271.28
2024-05-09T23:56:06.204Z,99270.19
2024-05-09T23:58:08.333Z,99266.88
